Latest Weather Observations for Camooweal

IDD60801

Issued at 6:33 pm CST Friday 6 March 2015 (issued every 30 minutes, with the page automatically refreshed every 10 minutes)

About weather observations | Map of weather stations | Latest weather observations for NT | Other Formats
Station Details ID: 037010 Name: CAMOOWEAL TOWNSHIP Lat: -19.92 Lon: 138.12 Height: 231.2 m
Data from the previous 72 hours. | See also: Recent months at Camooweal
Date/Time
CST
Temp
°C
App
Temp
°C
Dew
Point
Rel
Hum
%
Delta-T
°C
Wind Press
QNH
hPa
Press
MSL
hPa
Rain
since 9 am
mm
Dir
 
Spd
km/h
Gust
km/h
Spd
kts
Gust
kts
06/06:30pm 34.3 28.1 1.9 13 16.6 S 24 35 13 19 1006.4 1004.8 0.0
06/06:00pm 35.2 28.3 2.6 13 17.0 S 28 41 15 22 1006.3 1004.7 0.0
06/05:30pm 36.4 29.5 2.4 12 17.8 S 28 39 15 21 1006.2 1004.6 0.0
06/05:00pm 37.1 30.9 4.1 13 17.8 S 26 35 14 19 1005.9 1004.4 0.0
06/04:30pm 37.4 30.5 4.4 13 17.9 S 30 44 16 24 1005.9 1004.4 0.0
06/04:00pm 37.6 31.3 5.6 14 17.7 SSE 28 39 15 21 1005.9 1004.4 0.0
06/03:30pm 37.8 31.7 6.7 15 17.5 S 28 39 15 21 1005.9 1004.4 0.0
06/03:00pm 37.9 31.6 5.8 14 17.9 SSE 28 39 15 21 1006.0 1004.5 0.0
06/02:30pm 37.8 32.1 6.7 15 17.5 SSE 26 39 14 21 1006.3 1004.7 0.0
06/02:00pm 37.5 31.8 6.5 15 17.4 SSE 26 37 14 20 1006.9 1005.3 0.0
06/01:30pm 37.2 31.2 7.2 16 17.0 SSE 28 41 15 22 1007.3 1005.7 0.0
06/01:00pm 37.4 32.0 8.2 17 16.8 SSE 26 39 14 21 1007.9 1006.3 0.0
06/12:30pm 35.8 29.4 7.0 17 16.1 SSE 30 41 16 22 1008.4 1006.8 0.0
06/12:00pm 35.1 29.0 6.4 17 15.9 SSE 28 41 15 22 1008.9 1007.3 0.0
06/11:30am 34.8 29.2 7.0 18 15.5 SSE 26 41 14 22 1009.4 1007.8 0.0
06/11:00am 33.2 26.9 5.7 18 14.9 SSE 28 37 15 20 1009.8 1008.3 0.0
06/10:30am 33.0 26.7 5.5 18 14.8 SSE 28 39 15 21 1010.3 1008.8 0.0
06/10:00am 31.9 24.8 6.2 20 13.9 SSE 33 46 18 25 1010.5 1009.0 0.0
06/09:30am 31.4 24.5 6.5 21 13.5 SSE 32 43 17 23 1010.8 1009.2 0.0
06/09:00am 30.5 23.6 6.4 22 13.0 SSE 32 44 17 24 1010.8 1009.2 0.0
06/08:30am 29.4 23.2 6.1 23 12.4 SSE 28 41 15 22 1010.4 1008.9 0.0
06/08:00am 28.7 22.2 6.7 25 11.8 SSE 30 41 16 22 1010.3 1008.8 0.0
06/07:30am 28.1 21.8 7.4 27 11.2 S 30 44 16 24 1010.0 1008.5 0.0
06/07:00am 27.7 21.8 7.5 28 10.9 S 28 39 15 21 1009.7 1008.2 0.0
06/06:30am 27.8 23.2 8.1 29 10.8 S 22 33 12 18 1009.6 1008.1 0.0
06/06:00am 28.2 23.6 8.0 28 11.1 S 22 30 12 16 1009.1 1007.5 0.0
06/05:30am 28.7 24.5 8.4 28 11.2 SSE 20 32 11 17 1008.8 1007.2 0.0
06/05:00am 29.1 23.7 8.2 27 11.5 SSE 26 33 14 18 1008.7 1007.1 0.0
06/04:30am 29.1 24.6 8.7 28 11.4 SSE 22 30 12 16 1008.6 1007.0 0.0
06/04:00am 29.1 24.4 9.3 29 11.1 SSE 24 35 13 19 1008.4 1006.8 0.0
06/03:30am 29.4 24.9 10.0 30 11.1 SSE 24 33 13 18 1008.3 1006.7 0.0
06/03:00am 30.1 25.8 10.6 30 11.2 SSE 24 33 13 18 1008.4 1006.8 0.0
06/02:30am 30.8 25.9 11.2 30 11.5 SSE 28 35 15 19 1008.3 1006.7 0.0
06/02:00am 32.0 26.6 12.3 30 11.8 SSE 32 41 17 22 1008.4 1006.8 0.0
06/01:30am 30.4 29.9 17.8 46 8.1 SSW 17 24 9 13 1008.7 1007.1 0.0
06/01:00am 30.0 31.0 19.4 53 7.0 SSW 13 17 7 9 1009.0 1007.4 0.0
06/12:30am 30.5 33.0 18.2 47 8.0 ENE 2 9 1 5 1009.3 1007.7 0.0
06/12:00am 31.2 31.1 17.9 45 8.6 ENE 15 26 8 14 1009.9 1008.4 0.0
 
Date/Time
CST
Temp
°C
App
Temp
°C
Dew
Point
Rel
Hum
%
Delta-T
°C
Wind Press
QNH
hPa
Press
MSL
hPa
Rain
since 9 am
mm
Dir
 
Spd
km/h
Gust
km/h
Spd
kts
Gust
kts
05/11:30pm 33.0 31.4 16.4 37 10.6 E 20 32 11 17 1010.3 1008.8 0.0
05/11:00pm 34.4 31.0 15.8 33 11.8 SE 28 41 15 22 1009.3 1007.7 0.0
05/10:56pm 33.1 30.0 16.5 37 10.6 SE 28 41 15 22 1009.5 1007.9 0.0
05/10:30pm 32.3 31.6 17.4 41 9.6 SE 17 20 9 11 1009.6 1008.1 0.0
05/10:00pm 31.8 33.5 19.4 47 8.2 ESE 9 11 5 6 1009.4 1007.8 0.0
05/09:30pm 32.2 35.3 19.5 47 8.4 E 2 7 1 4 1008.9 1007.3 0.0
05/09:00pm 33.0 34.7 18.0 41 9.8 SSE 6 9 3 5 1008.0 1006.4 0.0
05/08:30pm 33.0 32.5 18.7 42 9.4 S 19 30 10 16 1008.5 1006.9 0.0
05/08:00pm 34.1 32.4 17.3 36 10.9 SSE 22 37 12 20 1008.4 1006.8 0.0
05/07:30pm 31.6 34.0 19.6 49 8.0 SW 6 9 3 5 1007.1 1005.5 0.0
05/07:00pm 31.4 33.3 19.7 49 7.8 SSW 9 11 5 6 1007.1 1005.5 0.0
05/06:30pm 31.2 32.7 18.9 48 8.1 SW 9 11 5 6 1006.9 1005.3 0.0
05/06:00pm 31.5 31.7 18.5 46 8.5 SSW 15 22 8 12 1006.8 1005.2 0.0
05/05:30pm 31.6 29.4 18.6 46 8.5 SW 28 43 15 23 1006.6 1005.0 0.0
05/05:29pm 31.5 29.3 18.8 46 8.3 SW 28 43 15 23 1006.6 1005.0 0.0
05/05:00pm 30.4 25.8 19.7 52 7.1 S 43 56 23 30 1006.9 1005.3 0.0
05/04:49pm 34.8 31.9 15.2 31 12.3 SSE 24 63 13 34 1006.7 1005.1 0.0
05/04:30pm 39.2 37.3 12.9 21 16.3 E 15 24 8 13 1005.9 1004.4 0.0
05/04:00pm 39.6 38.5 13.2 21 16.4 E 11 24 6 13 1006.0 1004.5 0.0
05/03:30pm 39.7 38.3 13.3 21 16.5 ESE 13 22 7 12 1006.4 1004.8 0.0
05/03:00pm 40.0 37.3 13.5 21 16.6 E 20 32 11 17 1006.8 1005.2 0.0
05/02:30pm 40.1 38.4 13.6 21 16.6 ESE 15 24 8 13 1007.3 1005.7 0.0
05/02:00pm 38.5 36.8 12.3 21 16.0 S 13 22 7 12 1007.9 1006.3 0.0
05/01:30pm 38.9 37.2 12.6 21 16.2 SE 13 26 7 14 1008.5 1006.9 0.0
05/01:00pm 39.0 36.5 13.4 22 15.9 SE 19 28 10 15 1009.0 1007.4 0.0
05/12:30pm 38.7 36.5 13.2 22 15.8 SE 17 26 9 14 1009.4 1007.8 0.0
05/12:00pm 38.1 36.6 15.2 25 14.6 SE 17 26 9 14 1010.1 1008.6 0.0
05/11:30am 37.6 36.7 14.8 25 14.4 SSE 13 26 7 14 1010.5 1009.0 0.0
05/11:00am 36.9 35.4 14.2 25 14.2 SE 15 24 8 13 1011.1 1009.5 0.0
05/10:30am 35.8 34.7 14.4 27 13.4 S 13 17 7 9 1011.2 1009.6 0.0
05/10:00am 35.5 35.1 16.3 32 12.3 S 13 19 7 10 1011.3 1009.7 0.0
05/09:30am 34.8 34.6 16.6 33 11.7 S 13 19 7 10 1011.5 1009.9 0.0
05/09:00am 33.9 34.3 17.2 37 10.8 S 11 15 6 8 1011.5 1009.9 0.0
05/08:30am 31.8 33.5 18.4 45 8.7 S 7 13 4 7 1011.4 1009.8 0.0
05/08:00am 30.8 32.8 19.2 50 7.6 SSE 7 9 4 5 1011.2 1009.6 0.0
05/07:30am 29.0 32.1 21.0 62 5.4 ESE 6 7 3 4 1010.5 1009.0 0.0
05/07:00am 25.5 30.4 22.4 83 2.1 CALM 0 6 0 3 1010.2 1008.7 0.0
05/06:30am 24.7 27.9 20.6 78 2.7 NNE 4 7 2 4 1010.0 1008.5 0.0
05/06:00am 25.4 29.2 20.9 76 3.0 NNW 2 7 1 4 1009.7 1008.2 0.0
05/05:30am 25.6 30.0 21.3 77 2.9 CALM 0 0 0 0 1009.6 1008.1 0.0
05/05:00am 25.9 29.2 21.8 78 2.8 WSW 7 11 4 6 1009.5 1007.9 0.0
05/04:30am 25.8 28.8 21.2 76 3.1 SSW 7 9 4 5 1008.9 1007.3 0.0
05/04:00am 27.6 29.5 18.9 59 5.6 NE 7 9 4 5 1008.7 1007.1 0.0
05/03:30am 28.6 30.1 19.0 56 6.3 NE 9 11 5 6 1008.5 1006.9 0.0
05/03:00am 28.2 29.8 19.1 57 5.9 ENE 9 11 5 6 1008.6 1007.0 0.0
05/02:30am 27.7 30.4 20.3 64 4.9 E 6 7 3 4 1008.8 1007.2 0.0
05/02:00am 28.5 30.9 20.0 60 5.6 ENE 7 9 4 5 1009.1 1007.5 0.0
05/01:30am 28.8 30.8 20.0 59 5.8 E 9 11 5 6 1009.2 1007.6 0.0
05/01:00am 29.1 31.6 20.3 59 5.8 ENE 7 9 4 5 1009.4 1007.8 0.0
05/12:30am 29.1 31.5 20.0 58 6.0 E 7 9 4 5 1009.5 1007.9 0.0
05/12:00am 29.0 32.4 20.2 59 5.8 ENE 2 6 1 3 1009.7 1008.2 0.0
 
Date/Time
CST
Temp
°C
App
Temp
°C
Dew
Point
Rel
Hum
%
Delta-T
°C
Wind Press
QNH
hPa
Press
MSL
hPa
Rain
since 9 am
mm
Dir
 
Spd
km/h
Gust
km/h
Spd
kts
Gust
kts
04/11:30pm 29.7 32.9 19.7 55 6.6 ENE 2 7 1 4 1009.8 1008.3 0.0
04/11:00pm 31.5 33.0 18.8 46 8.3 ENE 9 9 5 5 1010.0 1008.5 0.0
04/10:30pm 31.9 33.4 18.8 45 8.6 NE 9 11 5 6 1009.9 1008.4 0.0
04/10:00pm 32.2 34.0 19.5 47 8.4 ENE 9 11 5 6 1010.0 1008.5 0.0
04/09:30pm 32.0 33.5 18.9 45 8.6 NE 9 11 5 6 1009.9 1008.4 0.0
04/09:00pm 32.4 33.8 17.8 41 9.5 NE 7 9 4 5 1009.8 1008.3 0.0
04/08:30pm 32.7 34.1 17.7 40 9.7 ENE 7 9 4 5 1009.4 1007.8 0.0
04/08:00pm 33.3 34.0 17.0 37 10.5 ENE 9 13 5 7 1009.1 1007.5 0.0
04/07:30pm 34.3 33.9 16.2 34 11.6 E 13 19 7 10 1008.7 1007.1 0.0
04/07:00pm 34.9 34.3 15.7 31 12.2 E 13 15 7 8 1008.5 1006.9 0.0
04/06:30pm 35.8 35.1 15.5 29 12.9 E 13 20 7 11 1008.2 1006.6 0.0
04/06:00pm 37.3 35.4 15.7 27 13.8 ESE 20 30 11 16 1008.0 1006.4 0.0
04/05:30pm 38.2 37.0 17.0 28 13.8 ESE 19 26 10 14 1007.7 1006.1 0.0
04/05:00pm 38.2 36.4 15.9 26 14.3 ESE 20 26 11 14 1007.8 1006.2 0.0
04/04:30pm 38.3 37.1 16.0 27 14.4 ESE 17 24 9 13 1007.8 1006.2 0.0
04/04:00pm 37.5 37.9 16.4 28 13.6 ESE 9 15 5 8 1007.8 1006.2 0.0
04/03:30pm 38.0 36.7 16.9 29 13.8 ESE 19 28 10 15 1008.0 1006.4 0.0
04/03:00pm 39.0 38.1 17.7 28 14.0 SE 19 32 10 17 1008.2 1006.6 0.0
04/02:30pm 38.4 37.9 17.7 29 13.6 E 17 26 9 14 1008.7 1007.1 0.0
04/02:00pm 37.8 36.1 17.2 29 13.5 SE 22 30 12 16 1009.0 1007.4 0.0
04/01:30pm 38.5 37.8 18.3 30 13.4 E 19 28 10 15 1009.5 1007.9 0.0
04/01:00pm 37.3 39.2 20.6 37 11.4 ESE 11 33 6 18 1010.2 1008.7 0.0
04/12:30pm 37.3 38.2 19.3 35 12.1 ENE 13 24 7 13 1010.7 1009.1 0.0
04/12:00pm 35.5 37.6 19.4 38 10.8 E 7 13 4 7 1011.1 1009.5 0.0
04/11:30am 35.4 37.1 20.9 42 9.9 SSE 13 20 7 11 1011.6 1010.0 0.0
04/11:00am 34.9 37.3 22.2 47 8.8 SSE 13 20 7 11 1012.0 1010.4 0.0
04/10:30am 34.0 36.9 23.1 53 7.6 SSW 13 17 7 9 1012.4 1010.8 0.0
04/10:00am 32.9 35.8 23.2 56 6.8 SSW 13 17 7 9 1012.7 1011.1 0.0
04/09:30am 32.3 35.8 23.5 59 6.1 S 11 17 6 9 1012.7 1011.1 0.0
04/09:00am 31.2 35.0 24.1 66 5.0 SSW 11 15 6 8 1012.9 1011.3 0.0
04/08:30am 29.5 33.5 24.4 74 3.6 SSW 11 15 6 8 1012.8 1011.2 3.8
04/08:00am 28.2 33.1 24.4 80 2.7 SW 6 9 3 5 1012.4 1010.8 3.8
04/07:30am 27.1 32.3 23.6 81 2.4 NNW 2 9 1 5 1012.0 1010.4 3.8
04/07:00am 26.1 31.9 24.0 88 1.5 CALM 0 6 0 3 1011.2 1009.6 3.8
04/06:30am 25.4 29.9 23.6 90 1.2 SW 6 7 3 4 1010.8 1009.2 3.8
04/06:00am 25.6 29.8 23.5 88 1.4 W 7 9 4 5 1010.4 1008.9 3.8
04/05:30am 25.2 30.7 23.4 90 1.2 CALM 0 0 0 0 1009.8 1008.3 3.8
04/05:00am 25.4 29.8 23.5 89 1.3 W 6 7 3 4 1009.4 1007.8 3.8
04/04:30am 25.8 29.9 23.3 86 1.7 NW 7 11 4 6 1008.9 1007.3 3.8
04/04:00am 26.1 30.6 23.6 86 1.7 NW 6 7 3 4 1008.6 1007.0 3.8
04/03:30am 26.2 30.7 23.7 86 1.7 NW 6 7 3 4 1008.6 1007.0 3.8
04/03:00am 26.7 31.2 24.0 85 1.9 NNW 7 9 4 5 1008.6 1007.0 3.8
04/02:30am 26.8 31.3 23.9 84 2.0 N 7 9 4 5 1008.9 1007.3 3.8
04/02:00am 26.9 31.7 24.2 85 1.9 NNW 6 7 3 4 1008.9 1007.3 3.8
04/01:30am 27.1 31.9 24.4 85 1.9 NNW 7 9 4 5 1009.1 1007.5 3.8
04/01:00am 27.6 32.4 24.4 83 2.2 NNW 7 13 4 7 1009.5 1007.9 3.8
04/12:30am 28.0 32.8 24.4 81 2.5 NNE 7 9 4 5 1009.8 1008.3 3.8
04/12:00am 27.9 32.7 24.5 82 2.4 NE 7 9 4 5 1010.0 1008.5 3.8
 
Date/Time
CST
Temp
°C
App
Temp
°C
Dew
Point
Rel
Hum
%
Delta-T
°C
Wind Press
QNH
hPa
Press
MSL
hPa
Rain
since 9 am
mm
Dir
 
Spd
km/h
Gust
km/h
Spd
kts
Gust
kts
03/11:30pm 28.2 33.0 24.4 80 2.7 NE 7 9 4 5 1010.2 1008.7 3.8
03/11:00pm 28.2 33.3 24.6 81 2.5 NE 6 9 3 5 1010.4 1008.9 3.8
03/10:30pm 28.5 34.1 24.3 78 2.9 NE 2 6 1 3 1010.3 1008.8 3.8
03/10:00pm 28.5 33.8 24.3 78 2.9 NE 4 7 2 4 1010.2 1008.7 3.8
03/09:30pm 28.5 34.9 25.5 84 2.1 ENE 2 7 1 4 1010.1 1008.6 3.8
03/09:00pm 28.4 34.5 25.0 82 2.4 E 2 6 1 3 1010.0 1008.5 3.8
03/08:30pm 29.1 34.9 25.1 79 2.8 NE 4 7 2 4 1009.6 1008.1 3.8
03/08:00pm 28.8 35.0 24.6 78 3.0 CALM 0 0 0 0 1009.6 1008.1 3.8
03/07:30pm 29.3 35.4 24.4 75 3.4 CALM 0 0 0 0 1009.1 1007.5 3.8
03/07:00pm 30.7 35.1 23.4 65 5.1 N 6 7 3 4 1008.7 1007.1 3.8
03/06:30pm 31.5 35.2 22.5 59 6.2 NNE 7 9 4 5 1008.5 1006.9 3.8

Other Formats:

Comma delimited format used in spreadsheet applications
http://www.bom.gov.au/fwo/IDD60801/IDD60801.94255.axf

JavaScript Object Notation format (JSON) in row-major order
http://www.bom.gov.au/fwo/IDD60801/IDD60801.94255.json